Stations météo

réclame
Mon MeteoGroup
Zugspitze, Allemagne (10961): Température de l'air & dewpoint: 22.05.2018 12:00:00 - 28.05.2018 12:00:00 (CEST)Zugspitze, Allemagne (10961): Vitesse du vent & gusts: 22.05.2018 12:00:00 - 28.05.2018 12:00:00 (CEST)Zugspitze, Allemagne (10961): Direction du vent: 22.05.2018 12:00:00 - 28.05.2018 12:00:00 (CEST)Zugspitze, Allemagne (10961): visibility: 22.05.2018 12:00:00 - 28.05.2018 12:00:00 (CEST)Zugspitze, Allemagne (10961): Ensoleillement: 22.05.2018 12:00:00 - 28.05.2018 12:00:00 (CEST)
Date & Time tt [°C] td [°C] ff [km/h] ff [knt] fx [km/h] fx [knt] dd vv [km] sd [min]
28.05.2018 12:00:00 - - - - - - - - -
28.05.2018 11:00:00 5,6 -1,8 18 10 27 14 SSE 82 60
28.05.2018 10:00:00 5,7 -2,4 18 10 23 12 S 82 60
28.05.2018 09:00:00 5,5 -1,0 14 7 34 19 S 82 60
28.05.2018 08:00:00 4,3 -0,3 21 11 29 16 S 82 60
28.05.2018 07:00:00 3,7 0,1 12 7 16 9 SE 82 39
28.05.2018 06:00:00 3,6 -0,2 3 1 26 14 NNW 82 12
28.05.2018 05:00:00 3,7 - 11 6 21 11 SW - 0
28.05.2018 04:00:00 4,0 - 7 4 17 9 NNW - 0
28.05.2018 03:00:00 3,8 - 9 5 13 7 S - 0
28.05.2018 02:00:00 4,3 - 4 2 29 15 NNE - 0
28.05.2018 01:00:00 3,5 - 14 8 31 17 S - 0
28.05.2018 00:00:00 3,6 - 26 14 35 19 SE - 0
27.05.2018 23:00:00 3,8 - 30 16 47 25 SE - 0
27.05.2018 22:00:00 3,3 - 26 14 35 19 SE - 0
27.05.2018 21:00:00 3,6 1,9 18 10 37 20 SE 82 41
27.05.2018 20:00:00 6,2 -1,0 13 7 17 9 SE 82 60
27.05.2018 19:00:00 5,1 -1,7 9 5 14 8 N 80 60
27.05.2018 18:00:00 4,7 -1,5 9 5 13 7 SSE 70 21
27.05.2018 17:00:00 3,9 1,8 9 5 18 10 NNE 60 0
27.05.2018 16:00:00 3,8 1,9 4 2 19 11 NNW 35 0
27.05.2018 15:00:00 3,6 3,6 8 4 24 13 ESE 0,2 0
27.05.2018 14:00:00 6,9 3,0 9 5 16 9 SE 15 37
27.05.2018 13:00:00 5,8 1,2 4 2 13 7 NW 60 15
27.05.2018 12:00:00 7,0 -1,5 9 5 13 7 SSE 65 39
27.05.2018 11:00:00 6,9 -2,1 4 2 8 4 SSE 70 48
27.05.2018 10:00:00 5,6 -4,2 6 3 8 4 W 80 4
27.05.2018 09:00:00 6,0 -2,3 5 3 8 4 SW 80 0
27.05.2018 08:00:00 6,9 -4,0 4 2 7 4 ENE 70 16
27.05.2018 07:00:00 5,5 -2,4 6 4 9 5 NNE 70 40
27.05.2018 06:00:00 4,4 -3,6 7 4 15 8 N 55 3
27.05.2018 05:00:00 4,3 - 9 5 21 12 WSW - 0
27.05.2018 04:00:00 3,0 - 18 10 22 12 WSW - 0
27.05.2018 03:00:00 3,2 - 19 11 26 14 WSW - 0
27.05.2018 02:00:00 3,1 - 22 12 27 14 W - 0
27.05.2018 01:00:00 3,4 - 21 11 27 14 W - 0
27.05.2018 00:00:00 3,8 - 20 11 24 13 W - 0
26.05.2018 23:00:00 3,9 - 12 6 21 12 WSW - 0
26.05.2018 22:00:00 3,7 - 16 9 29 16 WNW - 0
26.05.2018 21:00:00 4,0 2,3 17 9 26 14 W 50 18
26.05.2018 20:00:00 4,3 2,8 18 10 21 11 W 50 16
26.05.2018 19:00:00 4,4 3,9 10 5 21 11 NNW 0,3 8
26.05.2018 18:00:00 5,3 4,4 16 8 24 13 N 0,1 5
26.05.2018 17:00:00 5,5 2,7 11 6 26 14 WNW 30 29
26.05.2018 16:00:00 5,6 3,2 5 3 15 8 N 0,7 49
26.05.2018 15:00:00 6,1 2,8 4 2 14 7 N 82 58
26.05.2018 14:00:00 5,4 2,2 5 3 17 9 N 82 57
26.05.2018 13:00:00 4,9 2,5 7 4 23 12 W 82 53
26.05.2018 12:00:00 4,6 0,7 13 7 21 11 W 82 56
26.05.2018 11:00:00 4,7 -0,3 16 8 25 14 WSW 82 56
26.05.2018 10:00:00 4,8 -1,1 16 8 24 13 WSW 82 60
26.05.2018 09:00:00 3,9 -3,7 18 10 29 16 WSW 82 60
26.05.2018 08:00:00 3,4 -2,8 21 11 29 15 WSW 82 60
26.05.2018 07:00:00 2,6 -4,1 19 10 33 18 W 82 49
26.05.2018 06:00:00 2,3 -5,6 26 14 31 17 W 82 15
26.05.2018 05:00:00 1,8 - 22 12 32 17 W - 0
26.05.2018 04:00:00 1,7 - 21 11 30 16 W - 0
26.05.2018 03:00:00 1,8 - 25 13 37 20 W - 0
26.05.2018 02:00:00 1,9 - 26 14 38 21 W - 0
26.05.2018 01:00:00 1,8 - 26 14 36 19 WSW - 0
26.05.2018 00:00:00 1,7 - 23 13 29 16 WSW - 0
25.05.2018 23:00:00 1,6 - 22 12 25 14 WSW - 0
25.05.2018 22:00:00 1,6 - 17 9 25 13 W - 0
25.05.2018 21:00:00 1,8 1,6 12 6 24 13 W 0,1 0
25.05.2018 20:00:00 1,6 1,6 11 6 21 12 N 0,1 0
25.05.2018 19:00:00 2,5 2,1 15 8 24 13 W 0,1 5
25.05.2018 18:00:00 2,6 2,2 6 4 20 11 NW 0,1 9
25.05.2018 17:00:00 2,3 2,3 9 5 18 10 NNW 0,1 8
25.05.2018 16:00:00 3,8 3,8 6 4 25 13 NW 0,1 37
25.05.2018 15:00:00 2,5 2,1 8 4 22 12 WNW 5 24
25.05.2018 14:00:00 4,1 4,1 4 2 13 7 WSW 30 -
25.05.2018 13:00:00 4,4 -4,1 6 4 12 7 WSW 30 57
25.05.2018 12:00:00 4,4 -0,8 6 3 13 7 SSW 30 57
25.05.2018 11:00:00 2,2 -1,6 5 3 11 6 SW 25 60
25.05.2018 10:00:00 2,5 -1,1 3 2 9 5 S 20 60
25.05.2018 09:00:00 1,6 -2,8 5 3 8 5 WNW 65 60
25.05.2018 08:00:00 0,6 -2,8 9 5 12 7 WSW 82 60
25.05.2018 07:00:00 0,7 -3,3 11 6 16 9 N 82 51
25.05.2018 06:00:00 0,6 -3,7 13 7 23 13 N 82 14
25.05.2018 05:00:00 -0,7 -1,5 18 10 22 12 NW - 0
25.05.2018 04:00:00 -0,4 -1,5 16 9 21 11 NW - 0
25.05.2018 03:00:00 0,0 -1,6 18 10 24 13 NNW - 0
25.05.2018 02:00:00 0,1 -1,8 16 9 27 15 N - 0
25.05.2018 01:00:00 0,0 -0,1 13 7 18 10 N - 0
25.05.2018 00:00:00 0,3 -0,3 10 5 23 13 WNW - 0
24.05.2018 23:00:00 0,8 -1,2 14 7 21 11 N - 0
24.05.2018 22:00:00 0,3 -0,1 4 2 25 13 SSW - 0
24.05.2018 21:00:00 0,1 0,0 17 9 24 13 N 0,2 0
24.05.2018 20:00:00 0,4 0,0 11 6 19 10 N 0,3 7
24.05.2018 19:00:00 1,8 0,3 4 2 15 8 N 30 40
24.05.2018 18:00:00 1,9 1,2 9 5 21 11 NNW 0,1 11
24.05.2018 17:00:00 2,0 1,2 5 3 19 11 N 0,1 19
24.05.2018 16:00:00 4,8 0,5 11 6 29 15 SSE 5 52
24.05.2018 15:00:00 2,6 0,4 16 9 30 16 SSE 0,4 18
24.05.2018 14:00:00 0,9 -0,1 19 11 25 14 SE 0,1 0
24.05.2018 13:00:00 2,8 0,5 4 2 9 5 NW 0,5 3
24.05.2018 12:00:00 3,6 0,6 0 0 9 5 N 0,2 14
24.05.2018 11:00:00 4,6 0,8 6 4 12 6 SSW 1,5 52
24.05.2018 10:00:00 2,1 -0,8 4 2 14 8 SW 0,8 15
24.05.2018 09:00:00 1,8 0,5 8 5 13 7 SE 0,1 15
24.05.2018 08:00:00 0,9 -0,1 5 3 10 5 W 40 0
24.05.2018 07:00:00 1,1 -0,1 9 5 16 9 W 35 0
24.05.2018 06:00:00 0,9 0,1 9 5 11 6 WSW 50 0
24.05.2018 05:00:00 0,8 0,4 10 5 21 12 WSW - 0
24.05.2018 04:00:00 0,8 0,3 16 9 29 16 SW - 0
24.05.2018 03:00:00 0,7 0,4 16 9 23 12 S - 0
24.05.2018 02:00:00 0,9 -0,1 15 8 20 11 S - 0
24.05.2018 01:00:00 1,5 -0,5 12 6 18 10 SSW - 0
24.05.2018 00:00:00 1,5 -0,8 13 7 16 9 SSW - 0
23.05.2018 23:00:00 1,2 0,1 13 7 26 14 SSE - 0
23.05.2018 22:00:00 0,6 0,4 18 10 23 12 SE - 0
23.05.2018 21:00:00 1,2 -0,2 16 9 20 11 ESE 35 0
23.05.2018 20:00:00 1,6 -0,2 8 4 16 9 ESE 30 0
23.05.2018 19:00:00 1,9 0,2 13 7 20 11 SE 15 4
23.05.2018 18:00:00 1,1 -1,0 9 5 13 7 N 1,4 0
23.05.2018 17:00:00 3,2 1,6 3 2 19 10 SE 0,3 0
23.05.2018 16:00:00 3,6 1,1 12 6 22 12 SSE 0,4 14
23.05.2018 15:00:00 3,2 1,3 15 8 30 16 SE 1,3 14
23.05.2018 14:00:00 3,2 1,0 18 10 30 16 SE 0,1 16
23.05.2018 13:00:00 2,2 0,5 19 11 27 15 SE 0,1 31
23.05.2018 12:00:00 1,5 0,3 16 9 29 16 SE 0,1 24
23.05.2018 11:00:00 2,4 -0,3 6 3 16 9 ESE 0,2 18
23.05.2018 10:00:00 0,7 -1,1 6 3 11 6 E 0,1 44
23.05.2018 09:00:00 2,5 -0,8 6 3 8 5 E 82 52
23.05.2018 08:00:00 2,0 -1,8 0 0 7 4 N 82 55
23.05.2018 07:00:00 0,5 -3,1 4 2 19 10 S 82 46
23.05.2018 06:00:00 -0,9 -2,1 14 8 20 11 S 82 3
23.05.2018 05:00:00 -0,9 -1,5 18 10 22 12 S - 0
23.05.2018 04:00:00 -0,6 -1,1 10 5 18 10 SW - 0
23.05.2018 03:00:00 0,3 -2,6 11 6 37 20 SW - 0
23.05.2018 02:00:00 0,4 -2,5 26 14 37 20 SSW - 0
23.05.2018 01:00:00 0,0 -0,9 24 13 34 18 S - 0
23.05.2018 00:00:00 -0,2 -0,5 24 13 34 18 SSE - 0
22.05.2018 23:00:00 -0,3 -0,5 14 7 20 11 SSE - 0
22.05.2018 22:00:00 -0,1 -0,3 16 9 19 11 S - 0
22.05.2018 21:00:00 -0,1 -0,6 12 6 21 12 SW 60 0
22.05.2018 20:00:00 0,9 -1,3 10 6 21 11 SSW 60 0
22.05.2018 19:00:00 1,4 -0,1 14 7 19 11 S 60 12
22.05.2018 18:00:00 1,3 0,2 17 9 28 15 SE 0,1 1
22.05.2018 17:00:00 1,6 0,0 21 11 27 15 SSE 0,1 33
22.05.2018 16:00:00 1,1 -0,3 19 11 34 18 SE - 0
22.05.2018 15:00:00 1,3 0,1 16 9 25 14 SE 0,1 4
22.05.2018 14:00:00 1,1 0,0 16 9 22 12 SE 0,1 0
22.05.2018 13:00:00 1,1 -0,5 16 9 28 15 SE 60 2
22.05.2018 12:00:00 1,2 -1,0 13 7 25 13 SE 60 26

tt = Température de l'air
td = dewpoint
ff = Vitesse du vent
fx = gusts
dd = Direction du vent
vv = visibility
sd = Ensoleillement

stations d'obs. à proximité